sensor_id;sensor_type;location;lat;lon;timestamp;temperature;humidity
20481;DHT22;10399;50.754;3.366;2023-02-18T00:01:24;12.60;99.90
20481;DHT22;10399;50.754;3.366;2023-02-18T00:03:51;12.60;99.90
20481;DHT22;10399;50.754;3.366;2023-02-18T00:06:21;12.50;99.90
20481;DHT22;10399;50.754;3.366;2023-02-18T00:08:49;12.50;99.90
20481;DHT22;10399;50.754;3.366;2023-02-18T00:11:18;12.60;99.90
20481;DHT22;10399;50.754;3.366;2023-02-18T00:14:07;12.50;99.90
20481;DHT22;10399;50.754;3.366;2023-02-18T00:16:34;12.40;99.90
20481;DHT22;10399;50.754;3.366;2023-02-18T00:19:03;12.40;99.90
20481;DHT22;10399;50.754;3.366;2023-02-18T00:21:34;12.40;99.90
20481;DHT22;10399;50.754;3.366;2023-02-18T00:24:04;12.40;99.90
20481;DHT22;10399;50.754;3.366;2023-02-18T00:26:32;12.50;99.90
20481;DHT22;10399;50.754;3.366;2023-02-18T00:28:59;12.50;99.90
20481;DHT22;10399;50.754;3.366;2023-02-18T00:31:32;12.60;99.90
20481;DHT22;10399;50.754;3.366;2023-02-18T00:34:00;12.80;99.90
20481;DHT22;10399;50.754;3.366;2023-02-18T00:36:28;12.70;99.90
20481;DHT22;10399;50.754;3.366;2023-02-18T00:38:58;12.70;99.90
20481;DHT22;10399;50.754;3.366;2023-02-18T00:41:27;12.60;99.90
20481;DHT22;10399;50.754;3.366;2023-02-18T00:43:54;12.60;99.90
20481;DHT22;10399;50.754;3.366;2023-02-18T00:46:22;12.70;99.90
20481;DHT22;10399;50.754;3.366;2023-02-18T00:48:50;12.60;99.90
20481;DHT22;10399;50.754;3.366;2023-02-18T00:51:17;12.60;99.90
20481;DHT22;10399;50.754;3.366;2023-02-18T00:53:43;12.60;99.90
20481;DHT22;10399;50.754;3.366;2023-02-18T00:56:10;12.50;99.90
20481;DHT22;10399;50.754;3.366;2023-02-18T00:58:38;12.60;99.90
20481;DHT22;10399;50.754;3.366;2023-02-18T01:01:05;12.50;99.90
20481;DHT22;10399;50.754;3.366;2023-02-18T01:03:34;12.40;99.90
20481;DHT22;10399;50.754;3.366;2023-02-18T01:06:01;12.40;99.90
20481;DHT22;10399;50.754;3.366;2023-02-18T01:08:28;12.30;99.90
20481;DHT22;10399;50.754;3.366;2023-02-18T01:10:57;12.40;99.90
20481;DHT22;10399;50.754;3.366;2023-02-18T01:13:25;12.40;99.90
20481;DHT22;10399;50.754;3.366;2023-02-18T01:15:53;12.50;99.90
20481;DHT22;10399;50.754;3.366;2023-02-18T01:18:21;12.40;99.90
20481;DHT22;10399;50.754;3.366;2023-02-18T01:20:48;12.40;99.90
20481;DHT22;10399;50.754;3.366;2023-02-18T01:23:15;12.40;99.90
20481;DHT22;10399;50.754;3.366;2023-02-18T01:25:42;12.30;99.90
20481;DHT22;10399;50.754;3.366;2023-02-18T01:28:11;12.30;99.90
20481;DHT22;10399;50.754;3.366;2023-02-18T01:30:38;12.30;99.90
20481;DHT22;10399;50.754;3.366;2023-02-18T01:33:06;12.30;99.90
20481;DHT22;10399;50.754;3.366;2023-02-18T01:35:33;12.20;99.90
20481;DHT22;10399;50.754;3.366;2023-02-18T01:38:03;12.30;99.90
20481;DHT22;10399;50.754;3.366;2023-02-18T01:40:30;12.40;99.90
20481;DHT22;10399;50.754;3.366;2023-02-18T01:42:57;12.30;99.90
20481;DHT22;10399;50.754;3.366;2023-02-18T01:50:33;12.20;99.90
20481;DHT22;10399;50.754;3.366;2023-02-18T01:53:01;12.20;99.90
20481;DHT22;10399;50.754;3.366;2023-02-18T01:55:28;12.10;99.90
20481;DHT22;10399;50.754;3.366;2023-02-18T01:57:55;12.10;99.90
20481;DHT22;10399;50.754;3.366;2023-02-18T02:00:22;12.20;99.90
20481;DHT22;10399;50.754;3.366;2023-02-18T02:02:51;12.10;99.90
20481;DHT22;10399;50.754;3.366;2023-02-18T02:05:20;12.30;99.90
20481;DHT22;10399;50.754;3.366;2023-02-18T02:07:50;12.30;99.90
20481;DHT22;10399;50.754;3.366;2023-02-18T02:10:18;12.20;99.90
20481;DHT22;10399;50.754;3.366;2023-02-18T02:15:57;12.20;99.90
20481;DHT22;10399;50.754;3.366;2023-02-18T02:27:18;12.20;99.90
20481;DHT22;10399;50.754;3.366;2023-02-18T02:30:13;12.20;99.90
20481;DHT22;10399;50.754;3.366;2023-02-18T02:35:46;12.10;99.90
20481;DHT22;10399;50.754;3.366;2023-02-18T02:38:17;12.10;99.90
20481;DHT22;10399;50.754;3.366;2023-02-18T02:41:02;12.20;99.90
20481;DHT22;10399;50.754;3.366;2023-02-18T02:43:52;12.10;99.90
20481;DHT22;10399;50.754;3.366;2023-02-18T02:46:34;12.10;99.90
20481;DHT22;10399;50.754;3.366;2023-02-18T02:54:19;12.10;99.90
20481;DHT22;10399;50.754;3.366;2023-02-18T02:56:46;12.10;99.90
20481;DHT22;10399;50.754;3.366;2023-02-18T02:59:19;12.10;99.90
20481;DHT22;10399;50.754;3.366;2023-02-18T03:16:07;12.00;99.90
20481;DHT22;10399;50.754;3.366;2023-02-18T03:18:40;11.90;99.90
20481;DHT22;10399;50.754;3.366;2023-02-18T03:21:31;12.00;99.90
20481;DHT22;10399;50.754;3.366;2023-02-18T03:24:13;11.90;99.90
20481;DHT22;10399;50.754;3.366;2023-02-18T03:26:49;12.10;99.90
20481;DHT22;10399;50.754;3.366;2023-02-18T03:29:18;12.10;99.90
20481;DHT22;10399;50.754;3.366;2023-02-18T03:31:51;12.00;99.90
20481;DHT22;10399;50.754;3.366;2023-02-18T03:34:24;12.00;99.90
20481;DHT22;10399;50.754;3.366;2023-02-18T03:36:52;11.90;99.90
20481;DHT22;10399;50.754;3.366;2023-02-18T03:39:20;12.00;99.90
20481;DHT22;10399;50.754;3.366;2023-02-18T03:41:48;12.00;99.90
20481;DHT22;10399;50.754;3.366;2023-02-18T03:44:16;12.10;99.90
20481;DHT22;10399;50.754;3.366;2023-02-18T03:46:43;12.10;99.90
20481;DHT22;10399;50.754;3.366;2023-02-18T03:49:12;12.00;99.90
20481;DHT22;10399;50.754;3.366;2023-02-18T03:51:39;12.00;99.90
20481;DHT22;10399;50.754;3.366;2023-02-18T03:54:07;12.00;99.90
20481;DHT22;10399;50.754;3.366;2023-02-18T03:56:35;12.00;99.90
20481;DHT22;10399;50.754;3.366;2023-02-18T03:59:02;12.10;99.90
20481;DHT22;10399;50.754;3.366;2023-02-18T04:01:29;12.10;99.90
20481;DHT22;10399;50.754;3.366;2023-02-18T04:03:57;12.00;99.90
20481;DHT22;10399;50.754;3.366;2023-02-18T04:06:24;12.00;99.90
20481;DHT22;10399;50.754;3.366;2023-02-18T04:08:51;12.00;99.90
20481;DHT22;10399;50.754;3.366;2023-02-18T04:11:18;12.10;99.90
20481;DHT22;10399;50.754;3.366;2023-02-18T04:13:45;11.90;99.90
20481;DHT22;10399;50.754;3.366;2023-02-18T04:16:12;11.90;99.90
20481;DHT22;10399;50.754;3.366;2023-02-18T04:18:39;11.90;99.90
20481;DHT22;10399;50.754;3.366;2023-02-18T04:21:06;11.80;99.90
20481;DHT22;10399;50.754;3.366;2023-02-18T04:23:33;11.90;99.90
20481;DHT22;10399;50.754;3.366;2023-02-18T04:26:00;11.90;99.90
20481;DHT22;10399;50.754;3.366;2023-02-18T04:28:27;11.90;99.90
20481;DHT22;10399;50.754;3.366;2023-02-18T04:30:54;11.90;99.90
20481;DHT22;10399;50.754;3.366;2023-02-18T04:33:21;11.90;99.90
20481;DHT22;10399;50.754;3.366;2023-02-18T04:35:48;11.90;99.90
20481;DHT22;10399;50.754;3.366;2023-02-18T04:38:15;11.90;99.90
20481;DHT22;10399;50.754;3.366;2023-02-18T04:40:42;11.90;99.90
20481;DHT22;10399;50.754;3.366;2023-02-18T04:43:09;11.90;99.90
20481;DHT22;10399;50.754;3.366;2023-02-18T04:45:36;11.90;99.90
20481;DHT22;10399;50.754;3.366;2023-02-18T04:48:03;11.90;99.90
20481;DHT22;10399;50.754;3.366;2023-02-18T04:50:30;11.90;99.90
20481;DHT22;10399;50.754;3.366;2023-02-18T04:52:57;12.00;99.90
20481;DHT22;10399;50.754;3.366;2023-02-18T04:55:24;12.00;99.90
20481;DHT22;10399;50.754;3.366;2023-02-18T04:57:51;11.90;99.90
20481;DHT22;10399;50.754;3.366;2023-02-18T05:00:19;11.90;99.90
20481;DHT22;10399;50.754;3.366;2023-02-18T05:02:46;11.90;99.90
20481;DHT22;10399;50.754;3.366;2023-02-18T05:05:14;11.80;99.90
20481;DHT22;10399;50.754;3.366;2023-02-18T05:07:41;11.70;99.90
20481;DHT22;10399;50.754;3.366;2023-02-18T05:10:10;11.90;99.90
20481;DHT22;10399;50.754;3.366;2023-02-18T05:12:40;11.90;99.90
20481;DHT22;10399;50.754;3.366;2023-02-18T05:15:07;11.80;99.90
20481;DHT22;10399;50.754;3.366;2023-02-18T05:17:34;11.80;99.90
20481;DHT22;10399;50.754;3.366;2023-02-18T05:20:02;11.70;99.90
20481;DHT22;10399;50.754;3.366;2023-02-18T05:22:29;11.80;99.90
20481;DHT22;10399;50.754;3.366;2023-02-18T05:24:57;11.80;99.90
20481;DHT22;10399;50.754;3.366;2023-02-18T05:27:24;11.80;99.90
20481;DHT22;10399;50.754;3.366;2023-02-18T05:29:51;11.80;99.90
20481;DHT22;10399;50.754;3.366;2023-02-18T05:32:18;11.60;99.90
20481;DHT22;10399;50.754;3.366;2023-02-18T05:34:45;11.70;99.90
20481;DHT22;10399;50.754;3.366;2023-02-18T05:37:12;11.70;99.90
20481;DHT22;10399;50.754;3.366;2023-02-18T05:39:40;11.70;99.90
20481;DHT22;10399;50.754;3.366;2023-02-18T05:42:07;11.80;99.90
20481;DHT22;10399;50.754;3.366;2023-02-18T05:44:34;12.00;99.90
20481;DHT22;10399;50.754;3.366;2023-02-18T05:47:08;12.10;99.90
20481;DHT22;10399;50.754;3.366;2023-02-18T05:49:39;12.00;99.90
20481;DHT22;10399;50.754;3.366;2023-02-18T05:52:07;12.00;99.90
20481;DHT22;10399;50.754;3.366;2023-02-18T05:54:35;11.90;99.90
20481;DHT22;10399;50.754;3.366;2023-02-18T05:57:03;11.80;99.90
20481;DHT22;10399;50.754;3.366;2023-02-18T05:59:30;11.80;99.90
20481;DHT22;10399;50.754;3.366;2023-02-18T06:01:57;11.80;99.90
20481;DHT22;10399;50.754;3.366;2023-02-18T06:04:24;11.80;99.90
20481;DHT22;10399;50.754;3.366;2023-02-18T06:06:51;11.80;99.90
20481;DHT22;10399;50.754;3.366;2023-02-18T06:09:19;11.90;99.90
20481;DHT22;10399;50.754;3.366;2023-02-18T06:11:46;11.80;99.90
20481;DHT22;10399;50.754;3.366;2023-02-18T06:14:13;11.80;99.90
20481;DHT22;10399;50.754;3.366;2023-02-18T06:16:40;11.80;99.90
20481;DHT22;10399;50.754;3.366;2023-02-18T06:19:07;11.60;99.90
20481;DHT22;10399;50.754;3.366;2023-02-18T06:21:34;11.60;99.90
20481;DHT22;10399;50.754;3.366;2023-02-18T06:24:01;11.80;99.90
20481;DHT22;10399;50.754;3.366;2023-02-18T06:26:28;11.90;99.90
20481;DHT22;10399;50.754;3.366;2023-02-18T06:28:55;12.00;99.90
20481;DHT22;10399;50.754;3.366;2023-02-18T06:31:23;11.90;99.90
20481;DHT22;10399;50.754;3.366;2023-02-18T06:33:50;11.90;99.90
20481;DHT22;10399;50.754;3.366;2023-02-18T06:36:17;11.80;99.90
20481;DHT22;10399;50.754;3.366;2023-02-18T06:38:45;11.70;99.90
20481;DHT22;10399;50.754;3.366;2023-02-18T06:41:13;11.60;99.90
20481;DHT22;10399;50.754;3.366;2023-02-18T06:43:40;11.70;99.90
20481;DHT22;10399;50.754;3.366;2023-02-18T06:46:08;11.70;99.90
20481;DHT22;10399;50.754;3.366;2023-02-18T06:48:35;11.90;99.90
20481;DHT22;10399;50.754;3.366;2023-02-18T06:51:04;11.80;99.90
20481;DHT22;10399;50.754;3.366;2023-02-18T06:53:31;11.80;99.90
20481;DHT22;10399;50.754;3.366;2023-02-18T06:55:58;11.70;99.90
20481;DHT22;10399;50.754;3.366;2023-02-18T06:58:25;11.70;99.90
20481;DHT22;10399;50.754;3.366;2023-02-18T07:00:52;11.60;99.90
20481;DHT22;10399;50.754;3.366;2023-02-18T07:03:19;11.80;99.90
20481;DHT22;10399;50.754;3.366;2023-02-18T07:05:46;11.80;99.90
20481;DHT22;10399;50.754;3.366;2023-02-18T07:08:13;11.90;99.90
20481;DHT22;10399;50.754;3.366;2023-02-18T07:10:40;11.90;99.90
20481;DHT22;10399;50.754;3.366;2023-02-18T07:13:07;11.90;99.90
20481;DHT22;10399;50.754;3.366;2023-02-18T07:15:34;11.90;99.90
20481;DHT22;10399;50.754;3.366;2023-02-18T07:18:01;11.80;99.90
20481;DHT22;10399;50.754;3.366;2023-02-18T07:20:28;11.80;99.90
20481;DHT22;10399;50.754;3.366;2023-02-18T07:22:56;11.80;99.90
20481;DHT22;10399;50.754;3.366;2023-02-18T07:25:23;11.80;99.90
20481;DHT22;10399;50.754;3.366;2023-02-18T07:27:51;11.80;99.90
20481;DHT22;10399;50.754;3.366;2023-02-18T07:30:19;11.80;99.90
20481;DHT22;10399;50.754;3.366;2023-02-18T07:32:46;11.80;99.90
20481;DHT22;10399;50.754;3.366;2023-02-18T07:35:16;11.90;99.90
20481;DHT22;10399;50.754;3.366;2023-02-18T07:37:50;11.80;99.90
20481;DHT22;10399;50.754;3.366;2023-02-18T07:40:19;11.90;99.90
20481;DHT22;10399;50.754;3.366;2023-02-18T07:42:47;12.00;99.90
20481;DHT22;10399;50.754;3.366;2023-02-18T07:45:14;12.00;99.90
20481;DHT22;10399;50.754;3.366;2023-02-18T07:47:41;12.00;99.90
20481;DHT22;10399;50.754;3.366;2023-02-18T07:50:09;12.00;99.90
20481;DHT22;10399;50.754;3.366;2023-02-18T07:52:37;12.10;99.90
20481;DHT22;10399;50.754;3.366;2023-02-18T07:55:04;12.00;99.90
20481;DHT22;10399;50.754;3.366;2023-02-18T07:57:31;12.00;99.90
20481;DHT22;10399;50.754;3.366;2023-02-18T07:59:58;12.00;99.90
20481;DHT22;10399;50.754;3.366;2023-02-18T08:02:26;12.10;99.90
20481;DHT22;10399;50.754;3.366;2023-02-18T08:04:53;12.00;99.90
20481;DHT22;10399;50.754;3.366;2023-02-18T08:07:21;12.00;99.90
20481;DHT22;10399;50.754;3.366;2023-02-18T08:09:48;12.10;99.90
20481;DHT22;10399;50.754;3.366;2023-02-18T08:12:16;12.00;99.90
20481;DHT22;10399;50.754;3.366;2023-02-18T08:14:44;12.10;99.90
20481;DHT22;10399;50.754;3.366;2023-02-18T08:17:11;12.00;99.90
20481;DHT22;10399;50.754;3.366;2023-02-18T08:19:38;12.10;99.90
20481;DHT22;10399;50.754;3.366;2023-02-18T08:22:11;12.00;99.90
20481;DHT22;10399;50.754;3.366;2023-02-18T08:24:38;12.10;99.90
20481;DHT22;10399;50.754;3.366;2023-02-18T08:27:04;12.10;99.90
20481;DHT22;10399;50.754;3.366;2023-02-18T08:29:31;12.10;99.90
20481;DHT22;10399;50.754;3.366;2023-02-18T08:32:12;12.00;99.90
20481;DHT22;10399;50.754;3.366;2023-02-18T08:34:41;12.00;99.90
20481;DHT22;10399;50.754;3.366;2023-02-18T08:37:07;12.00;99.90
20481;DHT22;10399;50.754;3.366;2023-02-18T08:39:35;12.00;99.90
20481;DHT22;10399;50.754;3.366;2023-02-18T08:42:05;12.00;99.90
20481;DHT22;10399;50.754;3.366;2023-02-18T08:44:32;12.00;99.90
20481;DHT22;10399;50.754;3.366;2023-02-18T08:46:59;12.10;99.90
20481;DHT22;10399;50.754;3.366;2023-02-18T08:49:26;12.10;99.90
20481;DHT22;10399;50.754;3.366;2023-02-18T08:51:53;12.10;99.90
20481;DHT22;10399;50.754;3.366;2023-02-18T08:54:26;12.10;99.90
20481;DHT22;10399;50.754;3.366;2023-02-18T08:56:54;12.00;99.90
20481;DHT22;10399;50.754;3.366;2023-02-18T08:59:21;12.00;99.90
20481;DHT22;10399;50.754;3.366;2023-02-18T09:01:48;12.10;99.90
20481;DHT22;10399;50.754;3.366;2023-02-18T09:04:16;12.20;99.90
20481;DHT22;10399;50.754;3.366;2023-02-18T09:06:43;12.20;99.90
20481;DHT22;10399;50.754;3.366;2023-02-18T09:09:12;12.20;99.90
20481;DHT22;10399;50.754;3.366;2023-02-18T09:11:40;12.20;99.90
20481;DHT22;10399;50.754;3.366;2023-02-18T09:14:07;12.20;99.90
20481;DHT22;10399;50.754;3.366;2023-02-18T09:16:34;12.20;99.90
20481;DHT22;10399;50.754;3.366;2023-02-18T09:19:02;12.20;99.90
20481;DHT22;10399;50.754;3.366;2023-02-18T09:21:29;12.40;99.90
20481;DHT22;10399;50.754;3.366;2023-02-18T09:23:56;12.30;99.90
20481;DHT22;10399;50.754;3.366;2023-02-18T09:26:24;12.40;99.90
20481;DHT22;10399;50.754;3.366;2023-02-18T09:28:54;12.30;99.90
20481;DHT22;10399;50.754;3.366;2023-02-18T09:31:24;12.30;99.90
20481;DHT22;10399;50.754;3.366;2023-02-18T09:33:55;12.40;99.90
20481;DHT22;10399;50.754;3.366;2023-02-18T09:36:22;12.50;99.90
20481;DHT22;10399;50.754;3.366;2023-02-18T09:38:50;12.40;99.90
20481;DHT22;10399;50.754;3.366;2023-02-18T09:44:00;12.50;99.90
20481;DHT22;10399;50.754;3.366;2023-02-18T09:46:32;12.40;99.90
20481;DHT22;10399;50.754;3.366;2023-02-18T09:49:02;12.40;99.90
20481;DHT22;10399;50.754;3.366;2023-02-18T09:51:30;12.40;99.90
20481;DHT22;10399;50.754;3.366;2023-02-18T09:53:57;12.40;99.90
20481;DHT22;10399;50.754;3.366;2023-02-18T09:56:32;12.60;99.90
20481;DHT22;10399;50.754;3.366;2023-02-18T09:59:04;12.60;99.90
20481;DHT22;10399;50.754;3.366;2023-02-18T10:01:37;12.50;99.90
20481;DHT22;10399;50.754;3.366;2023-02-18T10:04:14;12.40;99.90
20481;DHT22;10399;50.754;3.366;2023-02-18T10:06:44;12.50;99.90
20481;DHT22;10399;50.754;3.366;2023-02-18T10:09:31;12.60;99.90
20481;DHT22;10399;50.754;3.366;2023-02-18T10:12:14;12.70;99.90
20481;DHT22;10399;50.754;3.366;2023-02-18T10:14:44;12.60;99.90
20481;DHT22;10399;50.754;3.366;2023-02-18T10:17:15;12.70;99.90
20481;DHT22;10399;50.754;3.366;2023-02-18T10:19:45;12.70;99.90
20481;DHT22;10399;50.754;3.366;2023-02-18T10:22:14;12.70;99.90
20481;DHT22;10399;50.754;3.366;2023-02-18T10:24:51;12.70;99.90
20481;DHT22;10399;50.754;3.366;2023-02-18T10:27:30;12.90;99.90
20481;DHT22;10399;50.754;3.366;2023-02-18T10:32:47;12.90;99.90
20481;DHT22;10399;50.754;3.366;2023-02-18T10:35:30;12.90;99.90
20481;DHT22;10399;50.754;3.366;2023-02-18T10:38:15;12.90;99.90
20481;DHT22;10399;50.754;3.366;2023-02-18T10:43:41;12.80;99.90
20481;DHT22;10399;50.754;3.366;2023-02-18T10:46:42;13.00;99.90
20481;DHT22;10399;50.754;3.366;2023-02-18T10:52:16;12.70;99.90
20481;DHT22;10399;50.754;3.366;2023-02-18T10:54:53;12.80;99.90
20481;DHT22;10399;50.754;3.366;2023-02-18T10:57:24;12.90;99.90
20481;DHT22;10399;50.754;3.366;2023-02-18T10:59:56;13.00;99.90
20481;DHT22;10399;50.754;3.366;2023-02-18T11:02:27;12.90;99.90
20481;DHT22;10399;50.754;3.366;2023-02-18T11:04:59;12.80;99.90
20481;DHT22;10399;50.754;3.366;2023-02-18T11:07:34;12.90;99.90
20481;DHT22;10399;50.754;3.366;2023-02-18T11:10:15;13.00;99.90
20481;DHT22;10399;50.754;3.366;2023-02-18T11:12:47;13.10;99.90
20481;DHT22;10399;50.754;3.366;2023-02-18T11:15:19;13.10;99.90
20481;DHT22;10399;50.754;3.366;2023-02-18T11:17:48;13.20;99.90
20481;DHT22;10399;50.754;3.366;2023-02-18T11:22:55;13.20;99.90
20481;DHT22;10399;50.754;3.366;2023-02-18T11:25:26;13.20;99.90
20481;DHT22;10399;50.754;3.366;2023-02-18T11:30:50;13.10;99.90
20481;DHT22;10399;50.754;3.366;2023-02-18T11:33:43;13.00;99.90
20481;DHT22;10399;50.754;3.366;2023-02-18T11:36:32;13.20;99.90
20481;DHT22;10399;50.754;3.366;2023-02-18T11:39:01;13.20;99.90
20481;DHT22;10399;50.754;3.366;2023-02-18T11:41:42;13.10;99.90
20481;DHT22;10399;50.754;3.366;2023-02-18T11:44:26;13.00;99.90
20481;DHT22;10399;50.754;3.366;2023-02-18T11:47:21;13.20;99.90
20481;DHT22;10399;50.754;3.366;2023-02-18T11:50:21;13.20;99.90
20481;DHT22;10399;50.754;3.366;2023-02-18T11:52:50;13.10;99.90
20481;DHT22;10399;50.754;3.366;2023-02-18T11:55:21;13.10;99.90
20481;DHT22;10399;50.754;3.366;2023-02-18T11:58:02;13.30;99.90
20481;DHT22;10399;50.754;3.366;2023-02-18T12:00:45;13.20;99.90
20481;DHT22;10399;50.754;3.366;2023-02-18T12:06:16;13.20;99.90
20481;DHT22;10399;50.754;3.366;2023-02-18T12:08:50;13.20;99.90
20481;DHT22;10399;50.754;3.366;2023-02-18T12:11:49;13.10;99.90
20481;DHT22;10399;50.754;3.366;2023-02-18T12:14:19;12.90;99.90
20481;DHT22;10399;50.754;3.366;2023-02-18T12:18:03;12.90;99.90
20481;DHT22;10399;50.754;3.366;2023-02-18T12:22:52;12.90;99.90
20481;DHT22;10399;50.754;3.366;2023-02-18T12:31:44;13.00;99.90
20481;DHT22;10399;50.754;3.366;2023-02-18T12:45:25;12.70;99.90
20481;DHT22;10399;50.754;3.366;2023-02-18T12:53:28;12.60;99.90
20481;DHT22;10399;50.754;3.366;2023-02-18T12:59:10;12.60;99.90
20481;DHT22;10399;50.754;3.366;2023-02-18T13:13:32;12.50;99.90
20481;DHT22;10399;50.754;3.366;2023-02-18T13:16:02;12.40;99.90
20481;DHT22;10399;50.754;3.366;2023-02-18T13:18:37;12.40;99.90
20481;DHT22;10399;50.754;3.366;2023-02-18T13:21:11;12.40;99.90
20481;DHT22;10399;50.754;3.366;2023-02-18T13:23:51;12.50;99.90
20481;DHT22;10399;50.754;3.366;2023-02-18T13:26:20;12.50;99.90
20481;DHT22;10399;50.754;3.366;2023-02-18T13:29:19;12.50;99.90
20481;DHT22;10399;50.754;3.366;2023-02-18T13:34:53;12.30;99.90
20481;DHT22;10399;50.754;3.366;2023-02-18T13:40:25;12.30;99.90
20481;DHT22;10399;50.754;3.366;2023-02-18T13:43:28;12.20;99.90
20481;DHT22;10399;50.754;3.366;2023-02-18T13:46:11;12.20;99.90
20481;DHT22;10399;50.754;3.366;2023-02-18T13:51:15;12.20;99.90
20481;DHT22;10399;50.754;3.366;2023-02-18T13:53:49;12.40;99.90
20481;DHT22;10399;50.754;3.366;2023-02-18T13:56:29;12.40;99.90
20481;DHT22;10399;50.754;3.366;2023-02-18T13:59:06;12.50;99.90
20481;DHT22;10399;50.754;3.366;2023-02-18T14:13:22;12.30;99.90
20481;DHT22;10399;50.754;3.366;2023-02-18T14:18:24;12.50;99.90
20481;DHT22;10399;50.754;3.366;2023-02-18T14:20:51;12.50;99.90
20481;DHT22;10399;50.754;3.366;2023-02-18T14:33:34;12.50;99.90
20481;DHT22;10399;50.754;3.366;2023-02-18T14:36:08;12.60;99.90
20481;DHT22;10399;50.754;3.366;2023-02-18T14:52:53;12.70;99.90
20481;DHT22;10399;50.754;3.366;2023-02-18T14:55:00;12.60;99.90
20481;DHT22;10399;50.754;3.366;2023-02-18T14:57:43;12.60;99.90
20481;DHT22;10399;50.754;3.366;2023-02-18T15:00:23;12.50;99.90
20481;DHT22;10399;50.754;3.366;2023-02-18T15:02:53;12.60;99.90
20481;DHT22;10399;50.754;3.366;2023-02-18T15:05:23;12.60;99.90
20481;DHT22;10399;50.754;3.366;2023-02-18T15:10:41;12.60;99.90
20481;DHT22;10399;50.754;3.366;2023-02-18T15:13:33;12.70;99.90
20481;DHT22;10399;50.754;3.366;2023-02-18T15:16:18;12.70;99.90
20481;DHT22;10399;50.754;3.366;2023-02-18T15:19:07;12.70;99.90
20481;DHT22;10399;50.754;3.366;2023-02-18T15:21:42;12.60;99.90
20481;DHT22;10399;50.754;3.366;2023-02-18T15:24:31;12.50;99.90
20481;DHT22;10399;50.754;3.366;2023-02-18T15:27:14;12.60;99.90
20481;DHT22;10399;50.754;3.366;2023-02-18T15:29:42;12.50;99.90
20481;DHT22;10399;50.754;3.366;2023-02-18T15:32:24;12.40;99.90
20481;DHT22;10399;50.754;3.366;2023-02-18T15:35:00;12.50;99.90
20481;DHT22;10399;50.754;3.366;2023-02-18T15:37:29;12.50;99.90
20481;DHT22;10399;50.754;3.366;2023-02-18T15:39:57;12.50;99.90
20481;DHT22;10399;50.754;3.366;2023-02-18T15:45:01;12.50;99.90
20481;DHT22;10399;50.754;3.366;2023-02-18T15:47:29;12.50;99.90
20481;DHT22;10399;50.754;3.366;2023-02-18T15:49:59;12.50;99.90
20481;DHT22;10399;50.754;3.366;2023-02-18T15:52:30;12.50;99.90
20481;DHT22;10399;50.754;3.366;2023-02-18T15:55:08;12.60;99.90
20481;DHT22;10399;50.754;3.366;2023-02-18T15:57:38;12.50;99.90
20481;DHT22;10399;50.754;3.366;2023-02-18T16:00:19;12.60;99.90
20481;DHT22;10399;50.754;3.366;2023-02-18T16:05:37;12.50;99.90
20481;DHT22;10399;50.754;3.366;2023-02-18T16:08:12;12.60;99.90
20481;DHT22;10399;50.754;3.366;2023-02-18T16:10:45;12.50;99.90
20481;DHT22;10399;50.754;3.366;2023-02-18T16:13:15;12.40;99.90
20481;DHT22;10399;50.754;3.366;2023-02-18T16:15:44;12.30;99.90
20481;DHT22;10399;50.754;3.366;2023-02-18T16:18:40;12.20;99.90
20481;DHT22;10399;50.754;3.366;2023-02-18T16:23:45;12.20;99.90
20481;DHT22;10399;50.754;3.366;2023-02-18T16:29:22;12.30;99.90
20481;DHT22;10399;50.754;3.366;2023-02-18T16:31:49;12.30;99.90
20481;DHT22;10399;50.754;3.366;2023-02-18T16:34:17;12.30;99.90
20481;DHT22;10399;50.754;3.366;2023-02-18T16:36:45;12.30;99.90
20481;DHT22;10399;50.754;3.366;2023-02-18T16:39:32;12.40;99.90
20481;DHT22;10399;50.754;3.366;2023-02-18T16:42:00;12.30;99.90
20481;DHT22;10399;50.754;3.366;2023-02-18T16:44:27;12.40;99.90
20481;DHT22;10399;50.754;3.366;2023-02-18T16:46:55;12.40;99.90
20481;DHT22;10399;50.754;3.366;2023-02-18T16:49:22;12.50;99.90
20481;DHT22;10399;50.754;3.366;2023-02-18T16:51:49;12.40;99.90
20481;DHT22;10399;50.754;3.366;2023-02-18T16:54:17;12.50;99.90
20481;DHT22;10399;50.754;3.366;2023-02-18T16:56:44;12.30;99.90
20481;DHT22;10399;50.754;3.366;2023-02-18T16:59:11;12.40;99.90
20481;DHT22;10399;50.754;3.366;2023-02-18T17:01:41;12.40;99.90
20481;DHT22;10399;50.754;3.366;2023-02-18T17:04:14;12.40;99.90
20481;DHT22;10399;50.754;3.366;2023-02-18T17:06:43;12.40;99.90
20481;DHT22;10399;50.754;3.366;2023-02-18T17:09:15;12.30;99.90
20481;DHT22;10399;50.754;3.366;2023-02-18T17:11:44;12.20;99.90
20481;DHT22;10399;50.754;3.366;2023-02-18T17:14:16;12.30;99.90
20481;DHT22;10399;50.754;3.366;2023-02-18T17:16:44;12.30;99.90
20481;DHT22;10399;50.754;3.366;2023-02-18T17:19:12;12.40;99.90
20481;DHT22;10399;50.754;3.366;2023-02-18T17:21:40;12.40;99.90
20481;DHT22;10399;50.754;3.366;2023-02-18T17:24:15;12.40;99.90
20481;DHT22;10399;50.754;3.366;2023-02-18T17:26:42;12.30;99.90
20481;DHT22;10399;50.754;3.366;2023-02-18T17:29:10;12.40;99.90
20481;DHT22;10399;50.754;3.366;2023-02-18T17:31:40;12.30;99.90
20481;DHT22;10399;50.754;3.366;2023-02-18T17:34:14;12.00;99.90
20481;DHT22;10399;50.754;3.366;2023-02-18T17:36:43;12.10;99.90
20481;DHT22;10399;50.754;3.366;2023-02-18T17:39:12;12.10;99.90
20481;DHT22;10399;50.754;3.366;2023-02-18T17:41:40;12.10;99.90
20481;DHT22;10399;50.754;3.366;2023-02-18T17:44:19;12.10;99.90
20481;DHT22;10399;50.754;3.366;2023-02-18T17:46:47;12.10;99.90
20481;DHT22;10399;50.754;3.366;2023-02-18T17:49:15;12.10;99.90
20481;DHT22;10399;50.754;3.366;2023-02-18T17:51:43;12.10;99.90
20481;DHT22;10399;50.754;3.366;2023-02-18T17:54:16;12.20;99.90
20481;DHT22;10399;50.754;3.366;2023-02-18T17:56:44;12.10;99.90
20481;DHT22;10399;50.754;3.366;2023-02-18T17:59:12;12.10;99.90
20481;DHT22;10399;50.754;3.366;2023-02-18T18:01:39;12.20;99.90
20481;DHT22;10399;50.754;3.366;2023-02-18T18:04:16;12.20;99.90
20481;DHT22;10399;50.754;3.366;2023-02-18T18:06:44;12.20;99.90
20481;DHT22;10399;50.754;3.366;2023-02-18T18:09:12;12.20;99.90
20481;DHT22;10399;50.754;3.366;2023-02-18T18:11:39;12.20;99.90
20481;DHT22;10399;50.754;3.366;2023-02-18T18:14:07;12.10;99.90
20481;DHT22;10399;50.754;3.366;2023-02-18T18:16:35;12.10;99.90
20481;DHT22;10399;50.754;3.366;2023-02-18T18:19:02;12.10;99.90
20481;DHT22;10399;50.754;3.366;2023-02-18T18:21:33;12.10;99.90
20481;DHT22;10399;50.754;3.366;2023-02-18T18:24:01;12.10;99.90
20481;DHT22;10399;50.754;3.366;2023-02-18T18:26:28;12.00;99.90
20481;DHT22;10399;50.754;3.366;2023-02-18T18:28:55;12.10;99.90
20481;DHT22;10399;50.754;3.366;2023-02-18T18:31:22;12.10;99.90
20481;DHT22;10399;50.754;3.366;2023-02-18T18:33:50;12.10;99.90